sensor_id;sensor_type;location;lat;lon;timestamp;pressure;altitude;pressure_sealevel;temperature;humidity
61478;BME280;47345;52.334;10.392;2022-10-03T00:00:05;101405.84;;;10.71;93.42
61478;BME280;47345;52.334;10.392;2022-10-03T00:02:51;101412.06;;;10.71;93.43
61478;BME280;47345;52.334;10.392;2022-10-03T00:05:36;101412.08;;;10.71;93.34
61478;BME280;47345;52.334;10.392;2022-10-03T00:08:26;101414.84;;;10.70;93.38
61478;BME280;47345;52.334;10.392;2022-10-03T00:11:04;101417.07;;;10.70;93.36
61478;BME280;47345;52.334;10.392;2022-10-03T00:13:44;101418.82;;;10.68;93.29
61478;BME280;47345;52.334;10.392;2022-10-03T00:16:21;101423.67;;;10.66;93.26
61478;BME280;47345;52.334;10.392;2022-10-03T00:19:00;101427.52;;;10.64;93.31
61478;BME280;47345;52.334;10.392;2022-10-03T00:21:54;101432.06;;;10.64;93.48
61478;BME280;47345;52.334;10.392;2022-10-03T00:24:40;101432.61;;;10.64;93.58
61478;BME280;47345;52.334;10.392;2022-10-03T00:27:17;101434.73;;;10.65;93.60
61478;BME280;47345;52.334;10.392;2022-10-03T00:30:12;101438.63;;;10.64;93.36
61478;BME280;47345;52.334;10.392;2022-10-03T00:32:48;101437.13;;;10.61;93.22
61478;BME280;47345;52.334;10.392;2022-10-03T00:35:34;101442.17;;;10.57;93.11
61478;BME280;47345;52.334;10.392;2022-10-03T00:38:23;101447.39;;;10.54;93.06
61478;BME280;47345;52.334;10.392;2022-10-03T00:41:17;101452.00;;;10.49;93.06
61478;BME280;47345;52.334;10.392;2022-10-03T00:44:17;101448.66;;;10.44;93.14
61478;BME280;47345;52.334;10.392;2022-10-03T00:47:04;101452.20;;;10.42;93.47
61478;BME280;47345;52.334;10.392;2022-10-03T00:50:04;101451.77;;;10.42;93.58
61478;BME280;47345;52.334;10.392;2022-10-03T00:52:56;101456.14;;;10.42;93.71
61478;BME280;47345;52.334;10.392;2022-10-03T00:55:44;101456.73;;;10.41;93.67
61478;BME280;47345;52.334;10.392;2022-10-03T00:58:33;101458.41;;;10.41;93.62
61478;BME280;47345;52.334;10.392;2022-10-03T01:01:27;101459.98;;;10.40;93.68
61478;BME280;47345;52.334;10.392;2022-10-03T01:04:12;101464.91;;;10.40;93.73
61478;BME280;47345;52.334;10.392;2022-10-03T01:06:48;101466.23;;;10.41;93.87
61478;BME280;47345;52.334;10.392;2022-10-03T01:09:32;101468.38;;;10.42;93.87
61478;BME280;47345;52.334;10.392;2022-10-03T01:15:25;101470.02;;;10.44;93.96
61478;BME280;47345;52.334;10.392;2022-10-03T01:18:10;101469.42;;;10.46;93.97
61478;BME280;47345;52.334;10.392;2022-10-03T01:20:55;101474.42;;;10.49;94.01
61478;BME280;47345;52.334;10.392;2022-10-03T01:24:04;101473.14;;;10.51;94.02
61478;BME280;47345;52.334;10.392;2022-10-03T01:27:04;101474.56;;;10.52;93.99
61478;BME280;47345;52.334;10.392;2022-10-03T01:29:46;101478.02;;;10.54;94.03
61478;BME280;47345;52.334;10.392;2022-10-03T01:32:42;101479.56;;;10.55;94.03
61478;BME280;47345;52.334;10.392;2022-10-03T01:35:21;101483.61;;;10.56;93.94
61478;BME280;47345;52.334;10.392;2022-10-03T01:38:00;101488.93;;;10.57;94.00
61478;BME280;47345;52.334;10.392;2022-10-03T01:40:38;101490.61;;;10.56;94.08
61478;BME280;47345;52.334;10.392;2022-10-03T01:43:16;101491.54;;;10.56;94.14
61478;BME280;47345;52.334;10.392;2022-10-03T01:46:07;101495.33;;;10.57;94.19
61478;BME280;47345;52.334;10.392;2022-10-03T01:48:46;101496.77;;;10.58;94.12
61478;BME280;47345;52.334;10.392;2022-10-03T01:51:23;101496.29;;;10.59;93.97
61478;BME280;47345;52.334;10.392;2022-10-03T01:54:03;101497.31;;;10.60;93.97
61478;BME280;47345;52.334;10.392;2022-10-03T01:56:41;101497.05;;;10.60;94.08
61478;BME280;47345;52.334;10.392;2022-10-03T01:59:18;101502.95;;;10.61;94.13
61478;BME280;47345;52.334;10.392;2022-10-03T02:01:54;101503.69;;;10.63;94.08
61478;BME280;47345;52.334;10.392;2022-10-03T02:04:40;101506.14;;;10.64;94.02
61478;BME280;47345;52.334;10.392;2022-10-03T02:07:21;101511.65;;;10.63;94.09
61478;BME280;47345;52.334;10.392;2022-10-03T02:10:02;101511.93;;;10.63;94.01
61478;BME280;47345;52.334;10.392;2022-10-03T02:12:39;101516.84;;;10.64;94.08
61478;BME280;47345;52.334;10.392;2022-10-03T02:15:17;101521.11;;;10.65;94.09
61478;BME280;47345;52.334;10.392;2022-10-03T02:17:55;101518.70;;;10.65;94.11
61478;BME280;47345;52.334;10.392;2022-10-03T02:20:33;101519.20;;;10.64;93.99
61478;BME280;47345;52.334;10.392;2022-10-03T02:23:21;101517.70;;;10.62;93.89
61478;BME280;47345;52.334;10.392;2022-10-03T02:26:02;101520.24;;;10.60;93.77
61478;BME280;47345;52.334;10.392;2022-10-03T02:29:00;101528.48;;;10.56;93.64
61478;BME280;47345;52.334;10.392;2022-10-03T02:34:51;101532.20;;;10.46;93.70
61478;BME280;47345;52.334;10.392;2022-10-03T02:37:51;101537.38;;;10.42;93.80
61478;BME280;47345;52.334;10.392;2022-10-03T02:40:50;101543.46;;;10.40;93.92
61478;BME280;47345;52.334;10.392;2022-10-03T02:44:04;101547.23;;;10.37;94.01
61478;BME280;47345;52.334;10.392;2022-10-03T02:56:06;101549.18;;;10.26;93.87
61478;BME280;47345;52.334;10.392;2022-10-03T02:58:58;101556.88;;;10.22;93.90
61478;BME280;47345;52.334;10.392;2022-10-03T03:01:51;101562.30;;;10.19;93.83
61478;BME280;47345;52.334;10.392;2022-10-03T03:05:09;101561.77;;;10.16;94.06
61478;BME280;47345;52.334;10.392;2022-10-03T03:11:01;101563.93;;;10.12;94.21
61478;BME280;47345;52.334;10.392;2022-10-03T03:13:57;101562.64;;;10.08;94.29
61478;BME280;47345;52.334;10.392;2022-10-03T03:16:51;101559.01;;;10.06;94.31
61478;BME280;47345;52.334;10.392;2022-10-03T03:22:18;101565.60;;;10.02;94.56
61478;BME280;47345;52.334;10.392;2022-10-03T03:25:17;101562.98;;;10.00;94.62
61478;BME280;47345;52.334;10.392;2022-10-03T03:27:57;101567.07;;;9.98;94.36
61478;BME280;47345;52.334;10.392;2022-10-03T03:30:37;101563.57;;;9.95;94.44
61478;BME280;47345;52.334;10.392;2022-10-03T03:33:14;101565.50;;;9.93;94.65
61478;BME280;47345;52.334;10.392;2022-10-03T03:35:58;101563.46;;;9.91;94.53
61478;BME280;47345;52.334;10.392;2022-10-03T03:38:41;101564.58;;;9.90;94.56
61478;BME280;47345;52.334;10.392;2022-10-03T03:41:28;101566.73;;;9.88;94.64
61478;BME280;47345;52.334;10.392;2022-10-03T03:44:17;101569.16;;;9.88;94.81
61478;BME280;47345;52.334;10.392;2022-10-03T03:47:07;101572.16;;;9.89;95.05
61478;BME280;47345;52.334;10.392;2022-10-03T03:49:54;101573.06;;;9.90;94.99
61478;BME280;47345;52.334;10.392;2022-10-03T03:52:53;101575.34;;;9.93;95.09
61478;BME280;47345;52.334;10.392;2022-10-03T03:55:42;101577.41;;;9.95;95.21
61478;BME280;47345;52.334;10.392;2022-10-03T03:58:26;101583.49;;;9.98;95.12
61478;BME280;47345;52.334;10.392;2022-10-03T04:01:19;101588.17;;;9.98;94.98
61478;BME280;47345;52.334;10.392;2022-10-03T04:04:10;101591.48;;;9.96;94.91
61478;BME280;47345;52.334;10.392;2022-10-03T04:06:54;101595.96;;;9.97;95.07
61478;BME280;47345;52.334;10.392;2022-10-03T04:09:52;101600.66;;;9.97;95.10
61478;BME280;47345;52.334;10.392;2022-10-03T04:12:39;101602.15;;;9.99;95.04
61478;BME280;47345;52.334;10.392;2022-10-03T04:16:00;101598.36;;;9.98;94.93
61478;BME280;47345;52.334;10.392;2022-10-03T04:18:45;101597.34;;;9.98;94.88
61478;BME280;47345;52.334;10.392;2022-10-03T04:21:43;101598.06;;;9.96;94.98
61478;BME280;47345;52.334;10.392;2022-10-03T04:24:45;101595.74;;;9.96;94.97
61478;BME280;47345;52.334;10.392;2022-10-03T04:27:33;101591.09;;;9.94;94.93
61478;BME280;47345;52.334;10.392;2022-10-03T04:30:10;101596.66;;;9.93;94.84
61478;BME280;47345;52.334;10.392;2022-10-03T04:32:55;101591.78;;;9.91;95.01
61478;BME280;47345;52.334;10.392;2022-10-03T04:38:31;101596.84;;;9.88;94.96
61478;BME280;47345;52.334;10.392;2022-10-03T04:41:24;101602.62;;;9.85;95.12
61478;BME280;47345;52.334;10.392;2022-10-03T04:44:00;101606.02;;;9.84;95.09
61478;BME280;47345;52.334;10.392;2022-10-03T04:46:41;101601.40;;;9.83;95.09
61478;BME280;47345;52.334;10.392;2022-10-03T04:49:19;101599.16;;;9.82;95.13
61478;BME280;47345;52.334;10.392;2022-10-03T04:51:59;101601.33;;;9.81;95.26
61478;BME280;47345;52.334;10.392;2022-10-03T04:54:42;101601.97;;;9.80;95.22
61478;BME280;47345;52.334;10.392;2022-10-03T04:57:34;101608.64;;;9.79;95.20
61478;BME280;47345;52.334;10.392;2022-10-03T05:00:21;101604.23;;;9.78;95.19
61478;BME280;47345;52.334;10.392;2022-10-03T05:03:00;101603.40;;;9.75;94.92
61478;BME280;47345;52.334;10.392;2022-10-03T05:05:51;101602.94;;;9.73;94.81
61478;BME280;47345;52.334;10.392;2022-10-03T05:08:32;101598.52;;;9.70;94.91
61478;BME280;47345;52.334;10.392;2022-10-03T05:11:18;101602.35;;;9.69;94.93
61478;BME280;47345;52.334;10.392;2022-10-03T05:13:59;101601.81;;;9.67;95.04
61478;BME280;47345;52.334;10.392;2022-10-03T05:16:38;101606.16;;;9.66;94.93
61478;BME280;47345;52.334;10.392;2022-10-03T05:19:40;101602.41;;;9.64;94.92
61478;BME280;47345;52.334;10.392;2022-10-03T05:22:22;101615.27;;;9.61;94.81
61478;BME280;47345;52.334;10.392;2022-10-03T05:25:08;101626.52;;;9.58;94.94
61478;BME280;47345;52.334;10.392;2022-10-03T05:27:49;101627.35;;;9.56;94.96
61478;BME280;47345;52.334;10.392;2022-10-03T05:30:28;101627.83;;;9.55;94.91
61478;BME280;47345;52.334;10.392;2022-10-03T05:33:10;101633.02;;;9.55;95.14
61478;BME280;47345;52.334;10.392;2022-10-03T05:35:44;101635.02;;;9.57;95.37
61478;BME280;47345;52.334;10.392;2022-10-03T05:38:39;101636.25;;;9.59;95.60
61478;BME280;47345;52.334;10.392;2022-10-03T05:41:22;101645.31;;;9.63;95.62
61478;BME280;47345;52.334;10.392;2022-10-03T05:44:02;101649.04;;;9.67;95.67
61478;BME280;47345;52.334;10.392;2022-10-03T05:46:47;101649.95;;;9.66;95.79
61478;BME280;47345;52.334;10.392;2022-10-03T05:49:31;101655.70;;;9.73;95.65
61478;BME280;47345;52.334;10.392;2022-10-03T05:52:23;101660.77;;;9.77;95.59
61478;BME280;47345;52.334;10.392;2022-10-03T05:55:15;101660.08;;;9.80;95.54
61478;BME280;47345;52.334;10.392;2022-10-03T06:01:13;101663.13;;;9.85;95.37
61478;BME280;47345;52.334;10.392;2022-10-03T06:07:08;101667.17;;;9.86;95.23
61478;BME280;47345;52.334;10.392;2022-10-03T06:10:04;101673.89;;;9.85;95.26
61478;BME280;47345;52.334;10.392;2022-10-03T06:12:47;101680.30;;;9.84;95.08
61478;BME280;47345;52.334;10.392;2022-10-03T06:15:46;101683.83;;;9.84;95.29
61478;BME280;47345;52.334;10.392;2022-10-03T06:18:36;101679.92;;;9.85;95.23
61478;BME280;47345;52.334;10.392;2022-10-03T06:21:31;101686.03;;;9.85;95.29
61478;BME280;47345;52.334;10.392;2022-10-03T06:24:44;101694.59;;;9.86;95.42
61478;BME280;47345;52.334;10.392;2022-10-03T06:30:32;101704.53;;;9.87;95.47
61478;BME280;47345;52.334;10.392;2022-10-03T06:33:40;101699.14;;;9.89;95.52
61478;BME280;47345;52.334;10.392;2022-10-03T06:36:42;101702.83;;;9.90;95.76
61478;BME280;47345;52.334;10.392;2022-10-03T06:42:46;101705.33;;;9.94;95.93
61478;BME280;47345;52.334;10.392;2022-10-03T06:45:42;101713.49;;;9.95;95.92
61478;BME280;47345;52.334;10.392;2022-10-03T06:51:58;101708.35;;;10.03;96.24
61478;BME280;47345;52.334;10.392;2022-10-03T06:58:20;101711.08;;;10.13;96.28
61478;BME280;47345;52.334;10.392;2022-10-03T07:01:07;101708.48;;;10.20;96.52
61478;BME280;47345;52.334;10.392;2022-10-03T07:04:04;101708.58;;;10.25;96.45
61478;BME280;47345;52.334;10.392;2022-10-03T07:06:52;101711.76;;;10.31;96.37
61478;BME280;47345;52.334;10.392;2022-10-03T07:15:48;101721.00;;;10.52;96.88
61478;BME280;47345;52.334;10.392;2022-10-03T07:19:12;101719.52;;;10.64;97.03
61478;BME280;47345;52.334;10.392;2022-10-03T07:28:30;101718.20;;;11.00;96.47
61478;BME280;47345;52.334;10.392;2022-10-03T07:31:18;101724.33;;;11.09;96.25
61478;BME280;47345;52.334;10.392;2022-10-03T07:34:17;101724.44;;;11.17;95.98
61478;BME280;47345;52.334;10.392;2022-10-03T07:37:19;101727.48;;;11.24;95.50
61478;BME280;47345;52.334;10.392;2022-10-03T07:40:26;101734.84;;;11.31;95.23
61478;BME280;47345;52.334;10.392;2022-10-03T07:46:58;101739.52;;;11.40;94.59
61478;BME280;47345;52.334;10.392;2022-10-03T07:50:02;101745.30;;;11.44;94.63
61478;BME280;47345;52.334;10.392;2022-10-03T07:52:55;101741.65;;;11.47;94.54
61478;BME280;47345;52.334;10.392;2022-10-03T07:55:43;101743.33;;;11.53;94.79
61478;BME280;47345;52.334;10.392;2022-10-03T07:58:30;101742.05;;;11.58;94.42
61478;BME280;47345;52.334;10.392;2022-10-03T08:01:15;101741.48;;;11.59;94.09
61478;BME280;47345;52.334;10.392;2022-10-03T08:04:31;101741.52;;;11.62;94.21
61478;BME280;47345;52.334;10.392;2022-10-03T08:10:19;101745.15;;;11.66;94.11
61478;BME280;47345;52.334;10.392;2022-10-03T08:13:09;101751.67;;;11.69;93.97
61478;BME280;47345;52.334;10.392;2022-10-03T08:15:56;101749.42;;;11.71;94.13
61478;BME280;47345;52.334;10.392;2022-10-03T08:20:40;101749.05;;;11.75;93.78
61478;BME280;47345;52.334;10.392;2022-10-03T08:23:37;101748.34;;;11.75;93.81
61478;BME280;47345;52.334;10.392;2022-10-03T08:26:18;101753.73;;;11.77;93.75
61478;BME280;47345;52.334;10.392;2022-10-03T08:38:08;101745.42;;;11.91;93.66
61478;BME280;47345;52.334;10.392;2022-10-03T08:41:11;101745.73;;;11.96;94.02
61478;BME280;47345;52.334;10.392;2022-10-03T08:44:32;101750.40;;;12.01;94.14
61478;BME280;47345;52.334;10.392;2022-10-03T08:47:31;101751.52;;;12.07;94.12
61478;BME280;47345;52.334;10.392;2022-10-03T08:53:36;101758.11;;;12.18;94.14
61478;BME280;47345;52.334;10.392;2022-10-03T08:56:15;101762.60;;;12.24;94.38
61478;BME280;47345;52.334;10.392;2022-10-03T08:59:15;101758.83;;;12.27;93.98
61478;BME280;47345;52.334;10.392;2022-10-03T09:02:27;101758.92;;;12.31;93.68
61478;BME280;47345;52.334;10.392;2022-10-03T09:08:26;101758.61;;;12.41;93.03
61478;BME280;47345;52.334;10.392;2022-10-03T09:11:28;101763.23;;;12.50;93.32
61478;BME280;47345;52.334;10.392;2022-10-03T09:14:37;101764.44;;;12.62;93.02
61478;BME280;47345;52.334;10.392;2022-10-03T09:17:42;101762.83;;;12.70;92.09
61478;BME280;47345;52.334;10.392;2022-10-03T09:30:16;101768.58;;;13.04;92.05
61478;BME280;47345;52.334;10.392;2022-10-03T09:33:19;101768.16;;;13.16;91.87
61478;BME280;47345;52.334;10.392;2022-10-03T09:36:21;101772.95;;;13.31;90.90
61478;BME280;47345;52.334;10.392;2022-10-03T09:42:27;101771.14;;;13.57;89.84
61478;BME280;47345;52.334;10.392;2022-10-03T09:45:20;101769.25;;;13.69;88.91
61478;BME280;47345;52.334;10.392;2022-10-03T09:48:18;101768.80;;;13.80;88.99
61478;BME280;47345;52.334;10.392;2022-10-03T09:51:16;101769.94;;;13.90;88.58
61478;BME280;47345;52.334;10.392;2022-10-03T09:57:30;101774.09;;;14.06;87.19
61478;BME280;47345;52.334;10.392;2022-10-03T10:00:25;101771.66;;;14.17;86.94
61478;BME280;47345;52.334;10.392;2022-10-03T10:09:43;101773.10;;;14.26;84.31
61478;BME280;47345;52.334;10.392;2022-10-03T10:12:49;101778.27;;;14.25;84.15
61478;BME280;47345;52.334;10.392;2022-10-03T10:15:50;101776.40;;;14.27;83.79
61478;BME280;47345;52.334;10.392;2022-10-03T10:21:53;101774.52;;;14.29;83.14
61478;BME280;47345;52.334;10.392;2022-10-03T10:24:51;101770.52;;;14.27;83.51
61478;BME280;47345;52.334;10.392;2022-10-03T10:28:18;101770.26;;;14.25;84.29
61478;BME280;47345;52.334;10.392;2022-10-03T10:37:33;101773.92;;;14.00;86.69
61478;BME280;47345;52.334;10.392;2022-10-03T10:40:42;101769.86;;;13.92;87.06
61478;BME280;47345;52.334;10.392;2022-10-03T10:43:48;101769.08;;;13.84;87.21
61478;BME280;47345;52.334;10.392;2022-10-03T10:50:06;101774.88;;;13.79;88.08
61478;BME280;47345;52.334;10.392;2022-10-03T10:56:12;101771.85;;;13.82;87.63
61478;BME280;47345;52.334;10.392;2022-10-03T11:09:08;101763.65;;;13.72;88.71
61478;BME280;47345;52.334;10.392;2022-10-03T11:12:28;101754.84;;;13.71;89.17
61478;BME280;47345;52.334;10.392;2022-10-03T11:15:35;101753.38;;;13.72;89.51
61478;BME280;47345;52.334;10.392;2022-10-03T11:18:40;101756.64;;;13.74;89.16
61478;BME280;47345;52.334;10.392;2022-10-03T11:27:52;101762.43;;;13.93;87.96
61478;BME280;47345;52.334;10.392;2022-10-03T11:30:51;101757.77;;;14.01;86.97
61478;BME280;47345;52.334;10.392;2022-10-03T11:34:00;101753.75;;;14.15;86.87
61478;BME280;47345;52.334;10.392;2022-10-03T11:37:03;101752.20;;;14.31;86.55
61478;BME280;47345;52.334;10.392;2022-10-03T11:39:43;101755.14;;;14.47;85.71
61478;BME280;47345;52.334;10.392;2022-10-03T11:42:25;101751.79;;;14.60;85.48
61478;BME280;47345;52.334;10.392;2022-10-03T11:45:01;101753.19;;;14.73;84.51
61478;BME280;47345;52.334;10.392;2022-10-03T11:47:50;101752.98;;;14.87;83.93
61478;BME280;47345;52.334;10.392;2022-10-03T11:50:44;101757.43;;;15.01;84.18
61478;BME280;47345;52.334;10.392;2022-10-03T11:53:30;101755.17;;;15.12;82.88
61478;BME280;47345;52.334;10.392;2022-10-03T11:56:17;101751.98;;;15.18;81.58
61478;BME280;47345;52.334;10.392;2022-10-03T12:02:11;101751.10;;;15.16;80.51
61478;BME280;47345;52.334;10.392;2022-10-03T12:04:53;101749.12;;;15.14;79.89
61478;BME280;47345;52.334;10.392;2022-10-03T12:07:43;101759.46;;;15.10;79.80
61478;BME280;47345;52.334;10.392;2022-10-03T12:10:36;101758.06;;;15.06;80.60
61478;BME280;47345;52.334;10.392;2022-10-03T12:13:14;101756.45;;;15.04;81.32
61478;BME280;47345;52.334;10.392;2022-10-03T12:15:49;101755.05;;;15.05;81.24
61478;BME280;47345;52.334;10.392;2022-10-03T12:18:29;101745.48;;;15.07;81.13
61478;BME280;47345;52.334;10.392;2022-10-03T12:21:09;101743.10;;;15.09;80.68
61478;BME280;47345;52.334;10.392;2022-10-03T12:24:00;101737.89;;;15.12;80.25
61478;BME280;47345;52.334;10.392;2022-10-03T12:26:42;101733.27;;;15.14;79.47
61478;BME280;47345;52.334;10.392;2022-10-03T12:29:19;101727.67;;;15.11;78.65
61478;BME280;47345;52.334;10.392;2022-10-03T12:32:03;101728.27;;;15.08;78.82
61478;BME280;47345;52.334;10.392;2022-10-03T12:34:39;101727.41;;;15.05;78.72
61478;BME280;47345;52.334;10.392;2022-10-03T12:37:31;101727.75;;;15.04;78.72
61478;BME280;47345;52.334;10.392;2022-10-03T12:40:12;101727.80;;;15.04;79.50
61478;BME280;47345;52.334;10.392;2022-10-03T12:42:50;101726.02;;;15.05;79.72
61478;BME280;47345;52.334;10.392;2022-10-03T12:45:31;101723.90;;;15.07;78.42
61478;BME280;47345;52.334;10.392;2022-10-03T12:48:14;101720.77;;;15.10;78.73
61478;BME280;47345;52.334;10.392;2022-10-03T12:50:54;101716.64;;;15.15;78.45
61478;BME280;47345;52.334;10.392;2022-10-03T12:53:35;101714.05;;;15.20;77.36
61478;BME280;47345;52.334;10.392;2022-10-03T12:56:15;101716.33;;;15.27;77.30
61478;BME280;47345;52.334;10.392;2022-10-03T12:59:03;101715.39;;;15.39;77.66
61478;BME280;47345;52.334;10.392;2022-10-03T13:01:59;101717.55;;;15.57;77.56
61478;BME280;47345;52.334;10.392;2022-10-03T13:04:36;101718.66;;;15.69;76.52
61478;BME280;47345;52.334;10.392;2022-10-03T13:07:20;101727.27;;;15.74;75.68
61478;BME280;47345;52.334;10.392;2022-10-03T13:10:02;101730.36;;;15.74;73.81
61478;BME280;47345;52.334;10.392;2022-10-03T13:16:28;101727.77;;;15.73;74.11
61478;BME280;47345;52.334;10.392;2022-10-03T13:19:06;101729.52;;;15.73;74.31
61478;BME280;47345;52.334;10.392;2022-10-03T13:21:54;101727.98;;;15.72;73.75
61478;BME280;47345;52.334;10.392;2022-10-03T13:24:37;101728.89;;;15.71;73.41
61478;BME280;47345;52.334;10.392;2022-10-03T13:27:23;101729.14;;;15.69;72.90
61478;BME280;47345;52.334;10.392;2022-10-03T13:30:05;101724.15;;;15.66;73.16
61478;BME280;47345;52.334;10.392;2022-10-03T13:32:44;101723.34;;;15.64;74.37
61478;BME280;47345;52.334;10.392;2022-10-03T13:35:32;101721.40;;;15.62;74.09
61478;BME280;47345;52.334;10.392;2022-10-03T13:38:48;101720.21;;;15.60;73.90
61478;BME280;47345;52.334;10.392;2022-10-03T13:41:31;101717.55;;;15.58;74.48
61478;BME280;47345;52.334;10.392;2022-10-03T13:44:11;101718.20;;;15.55;74.90
61478;BME280;47345;52.334;10.392;2022-10-03T13:46:46;101715.92;;;15.49;73.99
61478;BME280;47345;52.334;10.392;2022-10-03T13:49:25;101715.73;;;15.42;73.78
61478;BME280;47345;52.334;10.392;2022-10-03T13:52:03;101714.02;;;15.36;74.38
61478;BME280;47345;52.334;10.392;2022-10-03T13:54:54;101711.02;;;15.34;74.99
61478;BME280;47345;52.334;10.392;2022-10-03T13:57:33;101713.71;;;15.36;75.45
61478;BME280;47345;52.334;10.392;2022-10-03T14:00:09;101708.60;;;15.42;75.41
61478;BME280;47345;52.334;10.392;2022-10-03T14:02:50;101712.35;;;15.51;75.70
61478;BME280;47345;52.334;10.392;2022-10-03T14:08:35;101710.59;;;15.71;75.41
61478;BME280;47345;52.334;10.392;2022-10-03T14:11:24;101703.95;;;15.79;74.68
61478;BME280;47345;52.334;10.392;2022-10-03T14:14:17;101704.73;;;15.88;74.33
61478;BME280;47345;52.334;10.392;2022-10-03T14:16:57;101704.07;;;15.94;73.78
61478;BME280;47345;52.334;10.392;2022-10-03T14:19:36;101701.33;;;16.01;73.16
61478;BME280;47345;52.334;10.392;2022-10-03T14:22:28;101701.88;;;16.05;72.53
61478;BME280;47345;52.334;10.392;2022-10-03T14:25:16;101699.80;;;16.10;72.46
61478;BME280;47345;52.334;10.392;2022-10-03T14:27:53;101695.70;;;16.13;72.47
61478;BME280;47345;52.334;10.392;2022-10-03T14:30:29;101698.04;;;16.16;73.23
61478;BME280;47345;52.334;10.392;2022-10-03T14:33:09;101696.94;;;16.18;73.15
61478;BME280;47345;52.334;10.392;2022-10-03T14:36:06;101697.70;;;16.19;71.66
61478;BME280;47345;52.334;10.392;2022-10-03T14:38:50;101697.38;;;16.17;71.06
61478;BME280;47345;52.334;10.392;2022-10-03T14:41:48;101696.94;;;16.11;
61478;BME280;47345;52.334;10.392;2022-10-03T14:44:37;101694.89;;;16.04;71.86
61478;BME280;47345;52.334;10.392;2022-10-03T14:47:12;101691.27;;;15.99;71.52
61478;BME280;47345;52.334;10.392;2022-10-03T14:49:51;101692.66;;;15.93;70.91
61478;BME280;47345;52.334;10.392;2022-10-03T14:52:31;101693.77;;;15.85;70.48
61478;BME280;47345;52.334;10.392;2022-10-03T14:55:11;101689.55;;;15.78;71.24
61478;BME280;47345;52.334;10.392;2022-10-03T14:57:47;101686.44;;;15.73;71.56
61478;BME280;47345;52.334;10.392;2022-10-03T15:00:41;101681.89;;;15.66;71.53
61478;BME280;47345;52.334;10.392;2022-10-03T15:03:21;101683.67;;;15.62;72.11
61478;BME280;47345;52.334;10.392;2022-10-03T15:08:53;101687.31;;;15.54;72.22
61478;BME280;47345;52.334;10.392;2022-10-03T15:11:27;101687.20;;;15.49;72.63
61478;BME280;47345;52.334;10.392;2022-10-03T15:14:01;101687.73;;;15.43;73.24
61478;BME280;47345;52.334;10.392;2022-10-03T15:16:42;101690.14;;;15.37;73.85
61478;BME280;47345;52.334;10.392;2022-10-03T15:19:17;101690.41;;;15.31;73.43
61478;BME280;47345;52.334;10.392;2022-10-03T15:21:52;101694.66;;;15.27;72.95
61478;BME280;47345;52.334;10.392;2022-10-03T15:24:27;101691.88;;;15.24;72.96
61478;BME280;47345;52.334;10.392;2022-10-03T15:27:03;101691.06;;;15.20;73.65
61478;BME280;47345;52.334;10.392;2022-10-03T15:29:38;101693.52;;;15.18;73.30
61478;BME280;47345;52.334;10.392;2022-10-03T15:32:20;101687.08;;;15.17;73.30
61478;BME280;47345;52.334;10.392;2022-10-03T15:34:59;101690.60;;;15.15;73.72
61478;BME280;47345;52.334;10.392;2022-10-03T15:37:33;101688.92;;;15.15;73.78
61478;BME280;47345;52.334;10.392;2022-10-03T15:40:09;101688.11;;;15.14;73.74
61478;BME280;47345;52.334;10.392;2022-10-03T15:43:00;101690.95;;;15.12;73.86
61478;BME280;47345;52.334;10.392;2022-10-03T15:45:32;101690.23;;;15.10;73.48
61478;BME280;47345;52.334;10.392;2022-10-03T15:48:05;101690.32;;;15.08;73.63
61478;BME280;47345;52.334;10.392;2022-10-03T15:50:41;101696.30;;;15.06;73.91
61478;BME280;47345;52.334;10.392;2022-10-03T15:53:19;101696.30;;;15.03;74.36
61478;BME280;47345;52.334;10.392;2022-10-03T15:56:11;101696.23;;;15.00;74.77
61478;BME280;47345;52.334;10.392;2022-10-03T15:58:48;101694.23;;;14.96;74.67
61478;BME280;47345;52.334;10.392;2022-10-03T16:01:21;101691.86;;;14.93;75.09
61478;BME280;47345;52.334;10.392;2022-10-03T16:03:58;101686.78;;;14.90;75.29
61478;BME280;47345;52.334;10.392;2022-10-03T16:06:36;101686.05;;;14.87;75.41
61478;BME280;47345;52.334;10.392;2022-10-03T16:09:14;101677.07;;;14.84;75.62
61478;BME280;47345;52.334;10.392;2022-10-03T16:11:53;101678.88;;;14.81;75.61
61478;BME280;47345;52.334;10.392;2022-10-03T16:14:30;101670.78;;;14.78;75.96
61478;BME280;47345;52.334;10.392;2022-10-03T16:17:12;101668.79;;;14.76;76.07
61478;BME280;47345;52.334;10.392;2022-10-03T16:19:51;101671.67;;;14.75;75.80
61478;BME280;47345;52.334;10.392;2022-10-03T16:22:27;101674.52;;;14.75;75.93
61478;BME280;47345;52.334;10.392;2022-10-03T16:25:06;101676.70;;;14.73;76.00
61478;BME280;47345;52.334;10.392;2022-10-03T16:27:51;101675.83;;;14.72;76.37
61478;BME280;47345;52.334;10.392;2022-10-03T16:30:25;101674.73;;;14.71;76.49
61478;BME280;47345;52.334;10.392;2022-10-03T16:33:02;101675.16;;;14.69;76.31
61478;BME280;47345;52.334;10.392;2022-10-03T16:35:42;101675.07;;;14.68;76.44
61478;BME280;47345;52.334;10.392;2022-10-03T16:38:21;101672.32;;;14.65;76.71
61478;BME280;47345;52.334;10.392;2022-10-03T16:40:55;101673.25;;;14.63;76.91
61478;BME280;47345;52.334;10.392;2022-10-03T16:43:29;101676.67;;;14.60;77.25
61478;BME280;47345;52.334;10.392;2022-10-03T16:46:03;101674.38;;;14.58;77.29
61478;BME280;47345;52.334;10.392;2022-10-03T16:48:35;101676.46;;;14.55;77.25
61478;BME280;47345;52.334;10.392;2022-10-03T16:51:25;101674.85;;;14.52;77.27
61478;BME280;47345;52.334;10.392;2022-10-03T16:53:57;101676.41;;;14.50;77.30